createdAt,value
2019-01-30T00:00:32.078Z,159.65
2019-01-30T00:03:00.289Z,130.72
2019-01-30T00:05:28.406Z,114.82
2019-01-30T00:07:56.542Z,125.70
2019-01-30T00:10:24.519Z,129.72
2019-01-30T00:12:52.800Z,136.37
2019-01-30T00:15:20.764Z,131.40
2019-01-30T00:17:48.845Z,133.10
2019-01-30T00:20:16.766Z,139.37
2019-01-30T00:22:44.535Z,159.93
2019-01-30T00:25:12.591Z,144.30
2019-01-30T00:27:40.673Z,171.43
2019-01-30T00:30:09.612Z,178.75
2019-01-30T00:32:37.522Z,156.85
2019-01-30T00:35:06.758Z,162.97
2019-01-30T00:37:34.718Z,153.78
2019-01-30T00:40:02.859Z,125.47
2019-01-30T00:42:30.722Z,112.68
2019-01-30T00:44:58.540Z,113.77
2019-01-30T00:47:26.293Z,102.62
2019-01-30T00:49:54.248Z,109.35
2019-01-30T00:52:22.125Z,118.67
2019-01-30T00:54:50.009Z,126.12
2019-01-30T00:57:17.849Z,124.60
2019-01-30T00:59:45.634Z,128.78
2019-01-30T01:02:13.705Z,126.85
2019-01-30T01:04:41.705Z,110.92
2019-01-30T01:07:09.753Z,116.37
2019-01-30T01:09:37.793Z,114.10
2019-01-30T01:12:05.893Z,111.85
2019-01-30T01:14:34.815Z,110.48
2019-01-30T01:17:02.789Z,122.72
2019-01-30T01:19:30.687Z,120.75
2019-01-30T01:22:00.989Z,119.95
2019-01-30T01:24:29.071Z,126.85
2019-01-30T01:26:57.083Z,127.32
2019-01-30T01:29:26.039Z,134.25
2019-01-30T01:31:53.985Z,126.60
2019-01-30T01:34:22.028Z,119.93
2019-01-30T01:36:49.780Z,118.87
2019-01-30T01:39:17.697Z,125.20
2019-01-30T01:41:45.455Z,127.72
2019-01-30T01:44:13.455Z,134.55
2019-01-30T01:46:41.428Z,136.03
2019-01-30T01:49:09.375Z,117.35
2019-01-30T01:51:37.329Z,111.10
2019-01-30T01:54:05.288Z,97.30
2019-01-30T01:56:33.247Z,108.15
2019-01-30T01:59:01.131Z,100.65
2019-01-30T02:01:29.021Z,89.35
2019-01-30T02:03:57.166Z,95.90
2019-01-30T02:06:25.166Z,97.12
2019-01-30T02:08:53.023Z,96.12
2019-01-30T02:11:20.966Z,134.30
2019-01-30T02:13:48.727Z,170.75
2019-01-30T02:16:16.930Z,145.50
2019-01-30T02:18:44.700Z,117.77
2019-01-30T02:21:12.715Z,100.25
2019-01-30T02:23:40.478Z,110.78
2019-01-30T02:26:08.531Z,123.07
2019-01-30T02:28:36.506Z,113.72
2019-01-30T02:31:04.431Z,102.42
2019-01-30T02:33:32.352Z,99.05
2019-01-30T02:36:00.305Z,86.67
2019-01-30T02:38:28.120Z,90.07
2019-01-30T02:40:56.043Z,90.97
2019-01-30T02:43:24.096Z,82.17
2019-01-30T02:45:51.972Z,78.05
2019-01-30T02:48:19.869Z,80.12
2019-01-30T02:50:47.840Z,78.15
2019-01-30T02:53:15.719Z,80.50
2019-01-30T02:55:45.145Z,79.03
2019-01-30T02:58:13.045Z,85.92
2019-01-30T03:00:41.124Z,85.83
2019-01-30T03:03:09.015Z,86.22
2019-01-30T03:05:36.969Z,79.85
2019-01-30T03:08:05.131Z,79.37
2019-01-30T03:10:33.126Z,81.97
2019-01-30T03:13:01.096Z,83.80
2019-01-30T03:15:29.130Z,85.97
2019-01-30T03:17:56.994Z,87.37
2019-01-30T03:20:25.796Z,80.35
2019-01-30T03:22:54.060Z,85.83
2019-01-30T03:25:22.810Z,85.65
2019-01-30T03:27:50.849Z,83.00
2019-01-30T03:30:20.910Z,94.80
2019-01-30T03:32:49.776Z,93.47
2019-01-30T03:35:17.942Z,92.17
2019-01-30T03:37:45.910Z,90.38
2019-01-30T03:40:15.611Z,93.58
2019-01-30T03:42:43.466Z,89.83
2019-01-30T03:45:12.208Z,90.97
2019-01-30T03:47:40.867Z,90.90
2019-01-30T03:50:09.798Z,93.40
2019-01-30T03:52:37.714Z,96.40
2019-01-30T03:55:07.196Z,95.72
2019-01-30T03:57:42.607Z,98.85
2019-01-30T04:00:16.340Z,100.47
2019-01-30T04:02:44.401Z,101.75
2019-01-30T04:05:12.506Z,104.87
2019-01-30T04:07:40.449Z,113.35
2019-01-30T04:10:10.240Z,107.32
2019-01-30T04:12:38.320Z,99.80
2019-01-30T04:15:06.929Z,106.72
2019-01-30T04:17:34.781Z,108.55
2019-01-30T04:20:03.553Z,103.05
2019-01-30T04:22:31.400Z,97.60
2019-01-30T04:24:59.485Z,105.47
2019-01-30T04:27:27.443Z,98.82
2019-01-30T04:29:55.417Z,112.28
2019-01-30T04:32:23.327Z,103.47
2019-01-30T04:34:51.182Z,114.03
2019-01-30T04:37:18.957Z,106.92
2019-01-30T04:39:46.993Z,110.25
2019-01-30T04:42:14.940Z,106.70
2019-01-30T04:44:43.550Z,110.08
2019-01-30T04:47:11.319Z,115.65
2019-01-30T04:49:39.209Z,107.47
2019-01-30T04:52:07.273Z,114.03
2019-01-30T04:54:35.112Z,110.40
2019-01-30T04:57:02.999Z,115.52
2019-01-30T04:59:33.732Z,113.30
2019-01-30T05:02:02.226Z,115.22
2019-01-30T05:04:30.134Z,116.77
2019-01-30T05:06:58.057Z,113.17
2019-01-30T05:09:26.212Z,115.40
2019-01-30T05:11:54.361Z,112.22
2019-01-30T05:14:22.260Z,107.97
2019-01-30T05:16:50.137Z,109.63
2019-01-30T05:19:17.981Z,100.55
2019-01-30T05:21:45.878Z,111.35
2019-01-30T05:24:13.840Z,101.30
2019-01-30T05:26:41.617Z,105.20
2019-01-30T05:29:09.451Z,104.72
2019-01-30T05:31:37.262Z,107.52
2019-01-30T05:34:05.253Z,101.12
2019-01-30T05:36:33.313Z,99.30
2019-01-30T05:39:01.169Z,118.82
2019-01-30T05:41:29.802Z,122.50
2019-01-30T05:43:57.683Z,130.70
2019-01-30T05:46:25.453Z,114.35
2019-01-30T05:48:53.872Z,132.95
2019-01-30T05:51:21.724Z,138.55
2019-01-30T05:53:49.745Z,184.97
2019-01-30T05:56:20.188Z,194.07
2019-01-30T05:58:47.385Z,199.53
2019-01-30T06:01:17.791Z,225.82
2019-01-30T06:03:45.957Z,187.70
2019-01-30T06:06:13.887Z,156.50
2019-01-30T06:08:41.744Z,172.17
2019-01-30T06:11:12.119Z,200.13
2019-01-30T06:13:39.447Z,237.68
2019-01-30T06:16:07.481Z,250.07
2019-01-30T06:18:36.047Z,260.73
2019-01-30T06:21:04.081Z,242.07
2019-01-30T06:23:33.006Z,228.25
2019-01-30T06:26:00.989Z,216.33
2019-01-30T06:28:29.423Z,216.78
2019-01-30T06:30:57.509Z,236.70
2019-01-30T06:33:25.426Z,213.00
2019-01-30T06:35:53.861Z,216.27
2019-01-30T06:38:21.871Z,218.35
2019-01-30T06:40:49.780Z,201.22
2019-01-30T06:43:17.646Z,185.32
2019-01-30T06:45:45.677Z,184.03
2019-01-30T06:48:13.639Z,158.87
2019-01-30T06:50:42.040Z,163.40
2019-01-30T06:53:10.001Z,159.63
2019-01-30T06:55:37.896Z,126.30
2019-01-30T06:58:05.944Z,128.35
2019-01-30T07:00:33.952Z,136.25
2019-01-30T07:03:02.542Z,140.65
2019-01-30T07:05:30.510Z,135.52
2019-01-30T07:07:58.484Z,122.28
2019-01-30T07:10:30.144Z,122.40
2019-01-30T07:12:58.109Z,136.03
2019-01-30T07:15:26.121Z,139.85
2019-01-30T07:17:55.054Z,126.97
2019-01-30T07:20:23.055Z,116.53
2019-01-30T07:22:51.038Z,109.12
2019-01-30T07:25:20.095Z,111.57
2019-01-30T07:27:48.131Z,107.60
2019-01-30T07:30:28.055Z,86.05
2019-01-30T07:32:55.962Z,81.35
2019-01-30T07:35:24.069Z,85.80
2019-01-30T07:37:52.158Z,92.02
2019-01-30T07:40:20.358Z,93.82
2019-01-30T07:42:48.216Z,87.50
2019-01-30T07:45:17.430Z,77.25
2019-01-30T07:47:45.405Z,95.85
2019-01-30T07:50:13.626Z,81.45
2019-01-30T07:52:41.717Z,84.20
2019-01-30T07:55:12.259Z,74.60
2019-01-30T07:57:40.244Z,85.50
2019-01-30T08:00:11.685Z,76.47
2019-01-30T08:02:39.575Z,76.42
2019-01-30T08:05:07.956Z,75.05
2019-01-30T08:07:35.985Z,79.42
2019-01-30T08:10:05.401Z,76.90
2019-01-30T08:12:33.370Z,69.70
2019-01-30T08:15:01.336Z,80.17
2019-01-30T08:17:29.697Z,79.50
2019-01-30T08:19:57.631Z,75.78
2019-01-30T08:22:25.814Z,68.92
2019-01-30T08:24:53.919Z,70.72
2019-01-30T08:27:22.154Z,63.78
2019-01-30T08:29:50.483Z,58.05
2019-01-30T08:32:18.632Z,67.25
2019-01-30T08:34:46.742Z,61.28
2019-01-30T08:37:18.810Z,60.40
2019-01-30T08:39:46.670Z,64.20
2019-01-30T08:42:14.752Z,55.35
2019-01-30T08:44:46.976Z,57.17
2019-01-30T08:47:12.751Z,60.30
2019-01-30T08:49:40.734Z,60.95
2019-01-30T08:52:09.530Z,57.67
2019-01-30T08:54:37.338Z,45.30
2019-01-30T08:57:05.417Z,46.48
2019-01-30T08:59:33.398Z,49.80
2019-01-30T09:02:01.345Z,53.35
2019-01-30T09:04:29.967Z,56.55
2019-01-30T09:06:57.884Z,53.10
2019-01-30T09:09:25.932Z,63.50
2019-01-30T09:11:53.918Z,56.70
2019-01-30T09:14:21.894Z,50.00
2019-01-30T09:16:49.874Z,51.40
2019-01-30T09:19:17.814Z,61.15
2019-01-30T09:21:45.847Z,48.08
2019-01-30T09:24:16.141Z,49.42
2019-01-30T09:26:43.604Z,50.05
2019-01-30T09:29:11.536Z,55.40
2019-01-30T09:31:39.448Z,49.53
2019-01-30T09:34:07.279Z,39.40
2019-01-30T09:36:35.075Z,54.65
2019-01-30T09:39:18.386Z,37.75
2019-01-30T09:41:46.326Z,47.90
2019-01-30T09:44:14.314Z,62.23
2019-01-30T09:46:42.193Z,97.37
2019-01-30T09:49:09.983Z,74.15
2019-01-30T09:51:37.862Z,51.18
2019-01-30T09:54:05.926Z,35.52
2019-01-30T09:56:34.707Z,59.65
2019-01-30T09:59:02.624Z,60.75
2019-01-30T10:01:31.000Z,57.48
2019-01-30T10:03:58.948Z,49.90
2019-01-30T10:06:26.870Z,43.20
2019-01-30T10:08:55.219Z,53.40
2019-01-30T10:11:23.040Z,45.48
2019-01-30T10:13:50.937Z,44.63
2019-01-30T10:16:18.898Z,44.13
2019-01-30T10:18:46.704Z,50.90
2019-01-30T10:21:14.879Z,46.88
2019-01-30T10:23:42.857Z,50.50
2019-01-30T10:26:10.910Z,49.15
2019-01-30T10:28:38.851Z,46.73
2019-01-30T10:31:06.952Z,49.98
2019-01-30T10:33:34.843Z,46.95
2019-01-30T10:36:02.959Z,46.55
2019-01-30T10:38:31.139Z,44.63
2019-01-30T10:40:59.149Z,51.65
2019-01-30T10:43:27.154Z,52.35
2019-01-30T10:45:56.864Z,45.35
2019-01-30T10:48:24.774Z,45.12
2019-01-30T10:50:52.811Z,50.48
2019-01-30T10:53:20.723Z,44.05
2019-01-30T10:55:48.694Z,47.40
2019-01-30T10:58:17.562Z,49.33
2019-01-30T11:00:48.169Z,43.35
2019-01-30T11:03:16.570Z,49.33
2019-01-30T11:05:44.749Z,48.58
2019-01-30T11:08:12.793Z,45.43
2019-01-30T11:10:40.776Z,40.25
2019-01-30T11:13:16.461Z,49.48
2019-01-30T11:15:44.416Z,46.08
2019-01-30T11:18:14.768Z,51.88
2019-01-30T11:20:42.841Z,54.70
2019-01-30T11:23:10.849Z,60.40
2019-01-30T11:25:40.244Z,57.45
2019-01-30T11:28:08.367Z,51.05
2019-01-30T11:30:36.452Z,67.45
2019-01-30T11:33:04.837Z,56.87
2019-01-30T11:35:32.970Z,60.92
2019-01-30T11:38:01.132Z,55.98
2019-01-30T11:40:29.186Z,56.08
2019-01-30T11:42:57.164Z,47.70
2019-01-30T11:45:30.742Z,46.70
2019-01-30T11:47:58.723Z,48.02
2019-01-30T11:50:26.766Z,46.95
2019-01-30T11:52:54.725Z,52.45
2019-01-30T11:55:23.095Z,55.63
2019-01-30T11:57:50.981Z,49.40
2019-01-30T12:00:33.951Z,50.00
2019-01-30T12:03:01.837Z,44.30
2019-01-30T12:05:29.730Z,48.58
2019-01-30T12:07:58.147Z,49.88
2019-01-30T12:10:26.178Z,43.83
2019-01-30T12:12:54.059Z,44.42
2019-01-30T12:15:25.966Z,40.55
2019-01-30T12:17:53.881Z,44.23
2019-01-30T12:20:21.941Z,43.83
2019-01-30T12:22:50.717Z,39.10
2019-01-30T12:25:19.107Z,39.88
2019-01-30T12:27:47.140Z,43.58
2019-01-30T12:30:17.506Z,50.23
2019-01-30T12:32:45.437Z,46.23
2019-01-30T12:35:13.639Z,44.53
2019-01-30T12:37:41.698Z,44.58
2019-01-30T12:40:11.210Z,40.05
2019-01-30T12:42:39.299Z,40.98
2019-01-30T12:45:09.269Z,36.68
2019-01-30T12:47:37.284Z,42.58
2019-01-30T12:50:07.550Z,41.23
2019-01-30T12:52:35.539Z,37.20
2019-01-30T12:55:04.130Z,40.25
2019-01-30T12:57:31.988Z,38.48
2019-01-30T12:59:59.761Z,43.65
2019-01-30T13:02:27.880Z,36.13
2019-01-30T13:04:55.668Z,40.30
2019-01-30T13:07:23.727Z,40.17
2019-01-30T13:09:51.731Z,37.83
2019-01-30T13:12:19.704Z,44.77
2019-01-30T13:14:47.739Z,47.20
2019-01-30T13:17:19.339Z,41.73
2019-01-30T13:19:47.775Z,40.52
2019-01-30T13:22:15.679Z,41.42
2019-01-30T13:24:43.971Z,41.40
2019-01-30T13:27:11.935Z,36.85
2019-01-30T13:29:39.745Z,44.65
2019-01-30T13:32:07.867Z,79.85
2019-01-30T13:34:35.768Z,57.98
2019-01-30T13:37:03.843Z,67.97
2019-01-30T13:39:31.777Z,76.75
2019-01-30T13:42:00.542Z,62.70
2019-01-30T13:44:28.490Z,40.50
2019-01-30T13:46:56.641Z,59.27
2019-01-30T13:49:24.559Z,55.75
2019-01-30T13:51:52.361Z,51.02
2019-01-30T13:54:20.421Z,51.33
2019-01-30T13:56:48.640Z,67.22
2019-01-30T13:59:16.629Z,49.07
2019-01-30T14:01:44.639Z,51.47
2019-01-30T14:04:13.183Z,53.60
2019-01-30T14:06:41.233Z,60.78
2019-01-30T14:09:09.585Z,57.53
2019-01-30T14:11:37.584Z,67.20
2019-01-30T14:14:05.716Z,51.43
2019-01-30T14:16:33.800Z,56.07
2019-01-30T14:19:01.940Z,57.37
2019-01-30T14:21:29.816Z,46.43
2019-01-30T14:23:57.714Z,43.20
2019-01-30T14:26:25.608Z,36.33
2019-01-30T14:28:53.521Z,42.77
2019-01-30T14:31:21.616Z,37.27
2019-01-30T14:33:50.288Z,41.17
2019-01-30T14:36:18.289Z,38.83
2019-01-30T14:38:46.258Z,39.93
2019-01-30T14:41:14.182Z,47.13
2019-01-30T14:43:41.995Z,46.70
2019-01-30T14:46:10.041Z,56.93
2019-01-30T14:48:38.109Z,65.73
2019-01-30T14:51:19.294Z,64.30
2019-01-30T14:53:47.161Z,54.37
2019-01-30T14:56:15.042Z,63.80
2019-01-30T14:58:42.817Z,66.00
2019-01-30T15:01:10.764Z,61.83
2019-01-30T15:03:38.756Z,69.40
2019-01-30T15:06:06.747Z,60.40
2019-01-30T15:08:34.655Z,57.30
2019-01-30T15:11:02.619Z,51.93
2019-01-30T15:13:30.725Z,50.87
2019-01-30T15:15:58.596Z,49.83
2019-01-30T15:18:26.703Z,46.30
2019-01-30T15:20:54.491Z,49.17
2019-01-30T15:23:22.298Z,50.50
2019-01-30T15:25:50.449Z,51.17
2019-01-30T15:28:18.348Z,61.03
2019-01-30T15:30:47.519Z,60.00
2019-01-30T15:33:15.559Z,55.97
2019-01-30T15:35:43.755Z,58.20
2019-01-30T15:38:13.444Z,55.30
2019-01-30T15:40:41.672Z,57.37
2019-01-30T15:43:09.735Z,66.83
2019-01-30T15:45:37.783Z,67.08
2019-01-30T15:48:06.027Z,74.82
2019-01-30T15:50:35.020Z,109.25
2019-01-30T15:53:05.889Z,162.83
2019-01-30T15:55:34.050Z,179.37
2019-01-30T15:58:05.134Z,190.30
2019-01-30T16:00:36.053Z,193.50
2019-01-30T16:03:04.272Z,154.33
2019-01-30T16:05:32.320Z,100.72
2019-01-30T16:08:00.283Z,89.57
2019-01-30T16:10:28.298Z,83.60
2019-01-30T16:12:56.257Z,86.53
2019-01-30T16:15:27.371Z,83.50
2019-01-30T16:17:55.352Z,82.00
2019-01-30T16:20:23.497Z,71.00
2019-01-30T16:22:51.476Z,63.63
2019-01-30T16:25:19.445Z,63.33
2019-01-30T16:27:47.437Z,95.65
2019-01-30T16:30:17.998Z,99.80
2019-01-30T16:32:47.820Z,90.63
2019-01-30T16:35:21.386Z,95.22
2019-01-30T16:37:49.408Z,90.15
2019-01-30T16:40:17.494Z,100.33
2019-01-30T16:42:45.421Z,114.62
2019-01-30T16:45:15.733Z,147.23
2019-01-30T16:47:44.409Z,132.43
2019-01-30T16:50:13.542Z,115.50
2019-01-30T16:52:41.513Z,123.62
2019-01-30T16:55:10.474Z,135.88
2019-01-30T16:57:38.482Z,142.77
2019-01-30T17:00:10.134Z,117.50
2019-01-30T17:02:38.134Z,111.62
2019-01-30T17:05:08.679Z,113.65
2019-01-30T17:07:36.852Z,120.92
2019-01-30T17:10:07.053Z,108.35
2019-01-30T17:12:35.000Z,96.22
2019-01-30T17:15:03.286Z,88.97
2019-01-30T17:17:31.399Z,88.40
2019-01-30T17:19:59.687Z,84.55
2019-01-30T17:22:27.642Z,81.57
2019-01-30T17:24:56.132Z,115.65
2019-01-30T17:27:24.120Z,118.45
2019-01-30T17:29:52.020Z,118.70
2019-01-30T17:32:19.839Z,129.97
2019-01-30T17:34:47.878Z,121.40
2019-01-30T17:37:15.824Z,117.75
2019-01-30T17:39:43.818Z,116.70
2019-01-30T17:42:11.894Z,120.77
2019-01-30T17:44:39.748Z,119.57
2019-01-30T17:47:07.861Z,106.78
2019-01-30T17:49:35.737Z,91.67
2019-01-30T17:52:03.703Z,86.42
2019-01-30T17:54:31.548Z,75.78
2019-01-30T17:56:59.605Z,78.83
2019-01-30T17:59:27.445Z,89.52
2019-01-30T18:01:55.526Z,102.10
2019-01-30T18:04:23.419Z,109.17
2019-01-30T18:06:51.400Z,107.12
2019-01-30T18:09:19.371Z,107.25
2019-01-30T18:11:47.398Z,105.40
2019-01-30T18:14:15.378Z,103.67
2019-01-30T18:16:43.444Z,110.22
2019-01-30T18:19:11.210Z,113.97
2019-01-30T18:21:39.260Z,122.92
2019-01-30T18:24:07.342Z,114.90
2019-01-30T18:26:37.975Z,120.28
2019-01-30T18:29:05.206Z,120.37
2019-01-30T18:31:33.025Z,114.45
2019-01-30T18:34:01.095Z,135.48
2019-01-30T18:36:40.400Z,171.55
2019-01-30T18:38:59.371Z,167.70
2019-01-30T18:41:27.333Z,149.00
2019-01-30T18:43:55.513Z,129.20
2019-01-30T18:46:24.145Z,140.05
2019-01-30T18:48:52.083Z,155.20
2019-01-30T18:51:20.067Z,155.82
2019-01-30T18:53:48.369Z,124.82
2019-01-30T18:56:16.312Z,129.53
2019-01-30T18:58:44.296Z,150.97
2019-01-30T19:01:12.274Z,162.10
2019-01-30T19:03:40.246Z,133.47
2019-01-30T19:06:08.220Z,135.43
2019-01-30T19:08:36.210Z,121.55
2019-01-30T19:11:04.176Z,113.95
2019-01-30T19:13:32.180Z,110.57
2019-01-30T19:16:00.718Z,101.67
2019-01-30T19:18:28.815Z,102.35
2019-01-30T19:20:56.810Z,111.37
2019-01-30T19:23:24.655Z,120.70
2019-01-30T19:25:52.434Z,122.60
2019-01-30T19:28:20.271Z,127.40
2019-01-30T19:30:48.146Z,136.35
2019-01-30T19:33:16.132Z,119.93
2019-01-30T19:35:44.136Z,109.95
2019-01-30T19:38:12.040Z,121.85
2019-01-30T19:40:40.006Z,123.45
2019-01-30T19:43:07.866Z,124.30
2019-01-30T19:45:35.920Z,122.42
2019-01-30T19:48:05.090Z,140.62
2019-01-30T19:50:33.146Z,136.90
2019-01-30T19:53:01.146Z,155.20
2019-01-30T19:55:29.118Z,134.03
2019-01-30T19:57:57.244Z,146.40
2019-01-30T20:00:30.644Z,228.90
2019-01-30T20:02:59.057Z,237.27
2019-01-30T20:05:27.045Z,249.85
2019-01-30T20:07:55.122Z,313.90
2019-01-30T20:10:28.759Z,393.12
2019-01-30T20:12:56.800Z,351.62
2019-01-30T20:15:24.878Z,306.73
2019-01-30T20:17:52.840Z,311.82
2019-01-30T20:20:21.298Z,240.07
2019-01-30T20:22:49.477Z,207.18
2019-01-30T20:25:19.863Z,232.00
2019-01-30T20:27:47.810Z,225.20
2019-01-30T20:30:17.749Z,268.60
2019-01-30T20:32:46.014Z,468.48
2019-01-30T20:35:14.165Z,509.98
2019-01-30T20:37:42.068Z,510.25
2019-01-30T20:40:13.240Z,478.58
2019-01-30T20:42:41.415Z,353.67
2019-01-30T20:45:10.641Z,290.80
2019-01-30T20:47:38.739Z,241.27
2019-01-30T20:50:09.514Z,225.82
2019-01-30T20:52:37.334Z,202.30
2019-01-30T20:55:06.123Z,174.12
2019-01-30T20:57:34.041Z,195.20
2019-01-30T21:00:04.067Z,237.32
2019-01-30T21:02:32.649Z,262.02
2019-01-30T21:05:00.681Z,246.05
2019-01-30T21:07:37.023Z,253.52
2019-01-30T21:09:58.440Z,227.75
2019-01-30T21:12:26.368Z,300.82
2019-01-30T21:14:54.208Z,296.05
2019-01-30T21:17:22.107Z,301.60
2019-01-30T21:19:49.909Z,357.30
2019-01-30T21:22:17.778Z,444.40
2019-01-30T21:24:45.703Z,416.62
2019-01-30T21:27:13.698Z,327.10
2019-01-30T21:29:41.697Z,244.85
2019-01-30T21:32:14.078Z,234.52
2019-01-30T21:34:41.854Z,270.77
2019-01-30T21:37:09.694Z,204.20
2019-01-30T21:39:37.667Z,170.82
2019-01-30T21:42:05.741Z,162.07
2019-01-30T21:44:33.536Z,161.35
2019-01-30T21:47:02.700Z,151.70
2019-01-30T21:49:30.811Z,161.18
2019-01-30T21:51:58.821Z,146.18
2019-01-30T21:54:26.878Z,145.40
2019-01-30T21:56:55.503Z,147.95
2019-01-30T21:59:23.276Z,141.05
2019-01-30T22:01:51.219Z,158.68
2019-01-30T22:04:19.124Z,171.00
2019-01-30T22:06:47.353Z,159.00
2019-01-30T22:09:15.214Z,140.95
2019-01-30T22:11:43.201Z,134.32
2019-01-30T22:14:11.147Z,136.52
2019-01-30T22:16:38.943Z,155.82
2019-01-30T22:19:07.016Z,170.85
2019-01-30T22:21:34.813Z,180.45
2019-01-30T22:24:05.522Z,193.30
2019-01-30T22:26:32.720Z,184.22
2019-01-30T22:29:02.695Z,206.97
2019-01-30T22:31:30.445Z,176.75
2019-01-30T22:33:58.829Z,145.38
2019-01-30T22:36:26.679Z,144.07
2019-01-30T22:38:54.500Z,136.22
2019-01-30T22:41:22.418Z,137.20
2019-01-30T22:43:50.326Z,149.62
2019-01-30T22:46:18.316Z,159.32
2019-01-30T22:48:46.244Z,155.80
2019-01-30T22:51:14.088Z,147.95
2019-01-30T22:53:41.972Z,132.30
2019-01-30T22:56:09.935Z,137.97
2019-01-30T22:58:37.788Z,134.90
2019-01-30T23:01:26.988Z,144.15
2019-01-30T23:04:27.949Z,150.32
2019-01-30T23:07:38.053Z,144.50
2019-01-30T23:10:45.120Z,134.03
2019-01-30T23:13:33.723Z,168.02
2019-01-30T23:16:40.294Z,152.65
2019-01-30T23:20:04.932Z,155.78
2019-01-30T23:23:04.748Z,154.78
2019-01-30T23:25:54.127Z,158.95
2019-01-30T23:28:42.050Z,170.35
2019-01-30T23:31:32.831Z,164.03
2019-01-30T23:34:33.898Z,157.20
2019-01-30T23:37:23.769Z,163.20
2019-01-30T23:40:30.262Z,168.17
2019-01-30T23:43:43.589Z,172.53
2019-01-30T23:46:32.856Z,177.70
2019-01-30T23:49:48.619Z,187.32
2019-01-30T23:52:57.776Z,173.95
2019-01-30T23:56:06.253Z,173.38
2019-01-30T23:58:51.417Z,165.45
